Time;durP1;ratioP1;P1;durP2;ratioP2;P2;SDS_P1;SDS_P2;PMS_P1;PMS_P2;Temp;Humidity;BMP_temperature;BMP_pressure;BME280_temperature;BME280_humidity;BME280_pressure;Samples;Min_cycle;Max_cycle;Signal;HPM_P1;HPM_P2
2021/05/23 00:02:25;;;;;;;4.35;2.35;;;9.20;99.90;;;7.89;94.52;100240.03;4962915;28;20342;-77
2021/05/23 00:04:52;;;;;;;9.20;3.15;;;9.30;99.90;;;7.97;94.39;100247.59;4952168;28;20132;-76
2021/05/23 00:07:27;;;;;;;6.75;2.60;;;9.30;99.90;;;8.02;93.83;100242.97;4973931;28;20126;-77
2021/05/23 00:09:54;;;;;;;10.65;2.92;;;9.40;99.90;;;8.09;93.21;100254.03;4930473;28;20494;-76
2021/05/23 00:12:20;;;;;;;9.07;2.80;;;9.50;99.90;;;8.15;93.50;100253.78;4948806;28;20083;-76
2021/05/23 00:14:46;;;;;;;4.47;2.08;;;9.50;99.90;;;8.18;92.80;100254.47;4950523;28;20070;-76
2021/05/23 00:17:12;;;;;;;7.53;3.13;;;9.60;99.90;;;8.26;92.16;100251.53;4957619;28;20071;-76
2021/05/23 00:19:40;;;;;;;5.85;2.35;;;9.70;99.90;;;8.36;91.25;100254.59;4965280;28;20535;-76
2021/05/23 00:22:06;;;;;;;9.57;2.35;;;9.10;99.90;;;8.39;91.71;100255.31;4940739;28;20065;-77
2021/05/23 00:24:32;;;;;;;10.18;2.30;;;9.70;99.90;;;8.39;91.50;100263.16;4941899;28;20109;-77
2021/05/23 00:26:58;;;;;;;5.72;2.17;;;9.70;99.90;;;8.40;91.95;100264.00;4941311;28;20079;-77
2021/05/23 00:29:24;;;;;;;8.95;2.13;;;9.70;99.90;;;8.43;91.08;100260.47;4965491;28;20068;-76
2021/05/23 00:31:50;;;;;;;7.68;2.38;;;9.70;99.90;;;8.43;91.33;100263.94;4931756;28;20065;-77
2021/05/23 00:34:16;;;;;;;5.90;1.92;;;9.70;99.90;;;8.41;91.20;100266.63;4921637;28;20077;-77
2021/05/23 00:36:42;;;;;;;3.78;1.60;;;9.80;99.90;;;8.48;91.31;100266.34;4948857;28;20521;-77
2021/05/23 00:39:08;;;;;;;13.40;2.67;;;9.80;99.90;;;8.48;91.31;100267.19;4962522;28;20098;-77
2021/05/23 00:41:34;;;;;;;6.28;1.98;;;9.80;99.90;;;8.53;91.11;100272.22;4925058;28;20078;-77
2021/05/23 00:44:03;;;;;;;11.00;2.13;;;9.80;99.90;;;8.54;90.51;100268.69;4931442;28;21586;-77
2021/05/23 00:46:29;;;;;;;3.92;2.00;;;9.80;99.90;;;8.58;91.12;100267.63;4964558;28;20545;-76
2021/05/23 00:48:55;;;;;;;7.40;2.28;;;9.90;99.90;;;8.51;90.92;100271.44;4947972;28;20101;-77
2021/05/23 00:51:21;;;;;;;4.95;1.73;;;9.90;99.90;;;8.53;90.28;100267.84;4951048;28;20076;-77
2021/05/23 00:53:47;;;;;;;9.65;2.00;;;9.80;99.90;;;8.48;90.38;100266.34;4956325;28;20086;-77
2021/05/23 00:56:17;;;;;;;5.20;2.08;;;9.80;99.90;;;8.48;90.61;100261.94;4950062;28;20101;-76
2021/05/23 00:58:44;;;;;;;10.45;1.90;;;9.80;99.90;;;8.47;90.88;100277.78;4956611;28;20079;-77
2021/05/23 01:01:14;;;;;;;3.45;1.80;;;9.80;99.90;;;8.48;90.90;100276.84;4939661;28;20548;-77
2021/05/23 01:04:02;;;;;;;4.97;1.90;;;9.80;99.90;;;8.51;90.72;100276.69;4956137;28;20078;-76
2021/05/23 01:06:31;;;;;;;10.65;1.70;;;9.90;99.90;;;8.54;90.40;100271.31;4964009;28;20090;-77
2021/05/23 01:08:57;;;;;;;6.78;2.10;;;9.90;99.90;;;8.59;90.75;100272.78;4954177;28;20076;-77
2021/05/23 01:11:22;;;;;;;3.70;1.83;;;9.80;99.90;;;8.52;90.94;100278.41;4931573;28;20542;-76
2021/05/23 01:13:57;;;;;;;6.72;1.83;;;9.80;99.90;;;8.53;90.67;100280.09;4948156;28;20081;-76
2021/05/23 01:16:36;;;;;;;8.35;2.00;;;9.80;99.90;;;8.55;91.11;100270.38;4970447;28;20074;-76
2021/05/23 01:19:19;;;;;;;6.75;1.90;;;9.80;99.90;;;8.51;91.25;100274.06;4962399;28;20158;-76
2021/05/23 01:21:56;;;;;;;5.15;1.58;;;9.90;99.90;;;8.57;90.93;100273.78;4953396;28;20460;-76
2021/05/23 01:24:31;;;;;;;6.50;1.90;;;9.90;99.90;;;8.56;90.92;100280.81;4979316;28;20079;-77
2021/05/23 01:26:58;;;;;;;10.20;1.88;;;9.90;99.90;;;8.58;90.87;100291.25;4930654;28;20067;-76
2021/05/23 01:29:24;;;;;;;7.82;1.52;;;9.80;99.90;;;8.53;90.51;100280.09;4957272;28;20061;-76
2021/05/23 01:31:54;;;;;;;3.67;2.00;;;9.90;99.90;;;8.55;90.22;100289.63;4953687;28;20484;-77
2021/05/23 01:34:26;;;;;;;4.28;1.48;;;9.90;99.90;;;8.56;89.89;100279.97;4964504;28;20074;-76
2021/05/23 01:36:57;;;;;;;9.10;1.63;;;9.90;99.90;;;8.58;90.12;100291.25;4964761;28;20078;-76
2021/05/23 01:39:24;;;;;;;5.63;1.83;;;9.90;99.90;;;8.62;89.15;100295.44;4961256;28;20102;-76
2021/05/23 01:41:59;;;;;;;3.75;1.67;;;9.90;99.90;;;8.63;89.22;100284.00;4909783;28;20156;-76
2021/05/23 01:44:26;;;;;;;5.97;1.50;;;10.00;99.90;;;8.67;87.91;100292.59;4955864;28;20184;-76
2021/05/23 01:46:54;;;;;;;4.07;1.63;;;9.90;99.90;;;8.65;88.14;100297.06;4955049;28;20167;-76
2021/05/23 01:49:23;;;;;;;2.88;1.40;;;10.00;99.90;;;8.64;87.74;100304.09;4931140;28;20775;-76
2021/05/23 01:51:49;;;;;;;2.90;1.20;;;9.90;99.90;;;8.61;87.45;100299.81;4972055;28;20154;-76
2021/05/23 01:54:14;;;;;;;3.92;1.30;;;9.90;99.90;;;8.61;86.94;100298.97;4949395;28;20126;-76
2021/05/23 01:56:40;;;;;;;3.72;1.10;;;9.90;99.90;;;8.61;86.55;100302.44;4965362;28;20080;-76
2021/05/23 01:59:06;;;;;;;4.07;1.30;;;9.90;99.90;;;8.57;87.29;100298.28;4946312;28;20072;-76
2021/05/23 02:01:37;;;;;;;3.92;1.50;;;9.90;99.90;;;8.55;87.70;100307.13;4931757;28;20098;-76
2021/05/23 02:04:05;;;;;;;5.88;1.33;;;9.80;99.90;;;8.51;87.61;100308.16;4957250;28;20447;-76
2021/05/23 02:06:31;;;;;;;4.47;1.40;;;9.80;99.90;;;8.49;87.42;100307.38;4937457;28;20108;-76
2021/05/23 02:08:57;;;;;;;3.45;1.45;;;9.70;99.90;;;8.47;87.55;100310.09;4971487;28;20092;-76
2021/05/23 02:11:23;;;;;;;3.00;1.50;;;9.80;99.90;;;8.46;87.36;100311.00;4951407;28;20103;-76
2021/05/23 02:13:54;;;;;;;4.68;1.38;;;9.70;99.90;;;8.49;87.28;100307.38;4961449;28;20075;-75
2021/05/23 02:16:20;;;;;;;5.38;1.60;;;9.80;99.90;;;8.53;86.78;100309.84;4941394;28;20091;-76
2021/05/23 02:18:46;;;;;;;5.97;1.33;;;9.80;99.90;;;8.52;87.19;100315.97;4947762;28;20080;-76
2021/05/23 02:21:15;;;;;;;3.28;1.50;;;9.90;99.90;;;8.54;87.08;100315.94;4954094;28;20085;-76
2021/05/23 02:23:52;;;;;;;6.95;1.40;;;9.80;99.90;;;8.52;85.99;100323.84;4967546;28;20085;-76
2021/05/23 02:26:19;;;;;;;3.20;1.65;;;9.80;99.90;;;8.54;86.13;100326.41;4921395;28;20076;-76
2021/05/23 02:28:50;;;;;;;5.18;1.30;;;9.90;99.90;;;8.55;84.87;100320.25;4963931;28;20060;-76
2021/05/23 02:31:15;;;;;;;10.35;1.45;;;9.90;99.90;;;8.58;85.20;100315.72;4940610;28;20133;-76
2021/05/23 02:33:42;;;;;;;7.25;1.50;;;9.90;99.90;;;8.58;85.38;100325.38;4953250;28;20061;-76
2021/05/23 02:36:08;;;;;;;7.63;1.55;;;9.90;99.90;;;8.59;84.98;100330.53;4930574;28;20134;-76
2021/05/23 02:38:36;;;;;;;1.95;1.20;;;9.90;99.90;;;8.56;85.42;100321.97;4917744;28;20092;-76
2021/05/23 02:41:02;;;;;;;2.05;1.20;;;9.90;99.90;;;8.57;85.36;100326.28;4913314;28;20071;-76
2021/05/23 02:43:29;;;;;;;5.53;1.60;;;9.90;99.90;;;8.55;85.88;100331.63;4956163;28;20089;-76
2021/05/23 02:45:55;;;;;;;2.70;1.35;;;9.90;99.90;;;8.54;86.18;100339.53;4945001;28;20640;-76
2021/05/23 02:48:21;;;;;;;5.22;1.83;;;9.80;99.90;;;8.46;87.38;100342.50;4956670;28;20067;-76
2021/05/23 02:50:56;;;;;;;3.25;1.75;;;9.80;99.90;;;8.39;89.60;100341.88;4953950;28;20421;-76
2021/05/23 02:53:22;;;;;;;4.93;1.58;;;9.70;99.90;;;8.36;89.14;100341.19;4922361;28;20064;-76
2021/05/23 02:55:50;;;;;;;6.78;1.70;;;9.60;99.90;;;8.31;89.81;100343.13;4957603;28;20417;-75
2021/05/23 02:58:17;;;;;;;10.70;1.42;;;9.60;99.90;;;8.29;89.71;100345.81;5000142;28;20127;-76
2021/05/23 03:00:44;;;;;;;8.13;1.60;;;9.60;99.90;;;8.26;90.19;100345.97;4940006;28;20076;-75
2021/05/23 03:03:14;;;;;;;6.07;1.65;;;9.50;99.90;;;8.17;90.73;100349.81;4930340;28;20430;-76
2021/05/23 03:05:43;;;;;;;4.15;1.60;;;9.50;99.90;;;8.11;91.33;100352.72;4941937;28;20076;-76
2021/05/23 03:08:10;;;;;;;5.57;2.08;;;9.40;99.90;;;8.09;91.31;100348.44;4953447;28;20068;-76
2021/05/23 03:10:47;;;;;;;9.05;1.88;;;9.30;99.90;;;8.09;90.55;100351.91;4923897;28;20082;-76
2021/05/23 03:13:14;;;;;;;4.75;1.60;;;9.30;99.90;;;8.00;90.89;100355.78;4932578;28;20075;-76
2021/05/23 03:15:40;;;;;;;9.10;1.90;;;9.30;99.90;;;8.04;90.47;100361.75;4902605;28;20430;-76
2021/05/23 03:18:11;;;;;;;7.43;1.88;;;9.30;99.90;;;7.98;90.68;100367.25;4918060;28;20084;-76
2021/05/23 03:20:41;;;;;;;7.82;1.85;;;9.20;99.90;;;7.92;91.19;100373.59;4920363;28;20134;-76
2021/05/23 03:23:11;;;;;;;3.47;1.77;;;9.20;99.90;;;7.91;91.11;100379.75;4931886;28;20091;-76
2021/05/23 03:25:39;;;;;;;6.18;1.98;;;9.20;99.90;;;7.87;91.21;100375.56;4906796;28;20077;-76
2021/05/23 03:28:06;;;;;;;3.38;1.50;;;9.20;99.90;;;7.91;90.77;100381.53;4931177;28;20072;-76
2021/05/23 03:30:42;;;;;;;4.35;1.33;;;8.70;99.90;;;7.94;90.81;100381.41;4984574;28;20621;-76
2021/05/23 03:33:11;;;;;;;3.85;1.52;;;9.30;99.90;;;7.95;90.51;100393.63;4942717;28;20074;-76
2021/05/23 03:35:38;;;;;;;5.88;1.75;;;9.30;99.90;;;7.94;90.89;100391.88;4946752;28;20061;-76
2021/05/23 03:38:07;;;;;;;4.80;1.67;;;9.30;99.90;;;7.94;89.98;100391.88;4943971;28;20444;-76
2021/05/23 03:40:39;;;;;;;5.82;1.90;;;9.30;99.90;;;7.96;90.12;100388.28;4914530;28;20067;-76
2021/05/23 03:43:07;;;;;;;3.92;1.67;;;9.30;99.90;;;7.97;89.66;100394.41;4910928;28;20618;-76
2021/05/23 03:45:36;;;;;;;4.97;1.52;;;9.30;99.90;;;7.97;89.82;100395.25;4937562;28;20107;-76
2021/05/23 03:48:06;;;;;;;6.20;1.55;;;9.30;99.90;;;7.97;89.66;100400.50;4936508;28;21715;-76
2021/05/23 03:50:32;;;;;;;6.68;1.65;;;9.30;99.90;;;7.99;88.40;100403.91;4939059;28;20081;-75
2021/05/23 03:53:00;;;;;;;3.67;1.45;;;9.30;99.90;;;8.00;88.87;100410.84;4944763;28;20100;-76
2021/05/23 03:55:29;;;;;;;6.25;1.42;;;9.30;99.90;;;8.02;88.23;100411.63;4938386;28;20060;-76
2021/05/23 03:57:57;;;;;;;6.25;1.38;;;9.30;99.90;;;8.01;88.51;100404.69;4944295;28;20071;-76
2021/05/23 04:00:26;;;;;;;11.07;1.50;;;9.30;99.90;;;8.04;88.36;100406.34;4961351;28;20473;-76
2021/05/23 04:02:53;;;;;;;5.13;1.70;;;9.30;99.90;;;8.07;87.28;100413.22;4961955;28;20483;-75
2021/05/23 04:05:24;;;;;;;3.45;1.30;;;9.40;99.90;;;8.06;86.15;100406.28;4932854;28;20429;-75
2021/05/23 04:07:51;;;;;;;8.35;1.23;;;9.40;99.90;;;8.14;86.21;100409.41;4963516;28;20139;-76
2021/05/23 04:10:21;;;;;;;3.05;1.00;;;9.50;99.90;;;8.17;86.01;100417.16;4982571;28;20441;-76
2021/05/23 04:12:51;;;;;;;6.63;1.45;;;9.20;99.90;;;8.22;84.17;100412.56;4942873;28;20068;-76
2021/05/23 04:15:19;;;;;;;7.22;1.10;;;9.60;99.90;;;8.28;85.09;100414.94;4956804;28;20139;-76
2021/05/23 04:17:49;;;;;;;5.13;1.55;;;9.60;99.90;;;8.27;85.35;100415.88;4941886;28;20073;-76
2021/05/23 04:20:21;;;;;;;3.25;1.23;;;9.60;99.90;;;8.29;85.24;100414.00;4942968;28;20079;-76
2021/05/23 04:22:51;;;;;;;4.90;1.30;;;9.60;99.90;;;8.32;84.60;100423.56;4938826;28;20493;-76
2021/05/23 04:25:19;;;;;;;4.72;1.00;;;9.60;99.90;;;8.32;84.87;100418.31;4968880;28;20505;-76
2021/05/23 04:27:48;;;;;;;5.72;1.20;;;9.60;99.90;;;8.33;84.81;100426.09;4948254;28;20149;-76
2021/05/23 04:30:18;;;;;;;7.90;1.20;;;9.70;99.90;;;8.37;85.08;100426.81;4921443;28;20176;-76
2021/05/23 04:32:51;;;;;;;2.78;1.00;;;9.70;99.90;;;8.39;84.92;100430.22;4929435;28;20678;-76
2021/05/23 04:35:18;;;;;;;5.75;1.08;;;9.70;99.90;;;8.41;85.54;100433.69;4921780;28;20076;-76
2021/05/23 04:37:48;;;;;;;2.88;1.40;;;9.70;99.90;;;8.43;84.50;100437.09;4954428;28;20154;-76
2021/05/23 04:40:18;;;;;;;7.32;1.35;;;9.70;99.90;;;8.40;85.15;100431.94;4943406;28;20063;-76
2021/05/23 04:42:45;;;;;;;8.32;1.23;;;9.70;99.90;;;8.40;85.25;100435.47;4955777;28;20450;-76
2021/05/23 04:45:12;;;;;;;6.85;1.05;;;9.70;99.90;;;8.38;85.50;100436.38;4937349;28;20090;-76
2021/05/23 04:47:38;;;;;;;6.28;1.02;;;9.70;99.90;;;8.35;85.68;100434.75;4947683;28;20425;-76
2021/05/23 04:50:09;;;;;;;2.72;0.98;;;9.70;99.90;;;8.38;85.12;100436.38;4953331;28;20160;-76
2021/05/23 04:52:37;;;;;;;4.15;1.52;;;9.70;99.90;;;8.38;84.77;100434.63;4947424;28;20068;-76
2021/05/23 04:55:06;;;;;;;4.47;1.40;;;9.60;99.90;;;8.36;85.39;100440.88;4963395;28;20121;-76
2021/05/23 04:57:32;;;;;;;2.67;1.08;;;9.70;99.90;;;8.43;85.20;100452.84;4956130;28;20389;-76
2021/05/23 05:00:02;;;;;;;5.15;1.10;;;9.70;99.90;;;8.47;84.64;100445.69;4941954;28;20067;-76
2021/05/23 05:02:28;;;;;;;3.00;1.08;;;9.80;99.90;;;8.52;84.34;100451.59;4940913;28;20441;-76
2021/05/23 05:04:54;;;;;;;6.32;1.50;;;9.80;99.90;;;8.53;83.90;100459.41;4936567;28;20119;-76
2021/05/23 05:07:20;;;;;;;5.25;1.10;;;9.80;99.90;;;8.49;84.59;100460.47;4947328;28;20075;-76
2021/05/23 05:09:45;;;;;;;5.78;1.33;;;9.80;99.90;;;8.53;84.58;100454.16;4953580;28;20487;-76
2021/05/23 05:12:11;;;;;;;9.45;1.65;;;9.80;99.90;;;8.52;84.56;100460.31;4946342;28;20068;-76
2021/05/23 05:14:37;;;;;;;9.95;1.65;;;9.80;99.90;;;8.59;84.57;100468.78;4956539;28;20217;-76
2021/05/23 05:17:03;;;;;;;4.78;1.40;;;9.90;99.90;;;8.64;84.08;100461.56;4964730;28;20092;-76
2021/05/23 05:19:29;;;;;;;6.60;1.33;;;9.90;99.90;;;8.70;83.29;100466.53;4947458;28;20156;-76
2021/05/23 05:21:56;;;;;;;7.10;1.50;;;10.00;99.90;;;8.72;83.61;100474.34;4974975;28;20091;-76
2021/05/23 05:24:24;;;;;;;6.78;1.40;;;9.90;99.90;;;8.71;83.97;100477.91;4942788;28;20533;-76
2021/05/23 05:27:00;;;;;;;3.53;0.90;;;10.00;99.90;;;8.68;83.40;100484.13;4950535;28;20198;-76
2021/05/23 05:29:26;;;;;;;8.27;1.30;;;9.90;99.90;;;8.65;83.92;100478.16;4917267;28;20068;-76
2021/05/23 05:31:53;;;;;;;3.17;1.10;;;9.90;99.90;;;8.63;83.26;100494.81;4943760;28;20420;-76
2021/05/23 05:34:19;;;;;;;5.68;1.50;;;9.90;99.90;;;8.66;84.81;100496.50;4954473;28;20079;-76
2021/05/23 05:36:50;;;;;;;7.20;1.35;;;9.90;99.90;;;8.69;83.56;100483.22;4947135;28;20065;-76
2021/05/23 05:39:15;;;;;;;5.00;1.33;;;10.10;99.90;;;8.93;83.34;100488.34;4939142;28;20092;-76
2021/05/23 05:41:41;;;;;;;3.85;1.30;;;10.40;99.90;;;9.31;82.35;100485.78;4962721;28;20538;-76
2021/05/23 05:44:07;;;;;;;10.70;1.58;;;10.60;99.90;;;9.42;80.18;100494.03;4947448;28;20096;-76
2021/05/23 05:46:33;;;;;;;3.45;1.10;;;10.70;99.90;;;9.46;80.92;100492.97;4941481;28;20116;-76
2021/05/23 05:49:02;;;;;;;7.45;1.33;;;10.60;99.90;;;9.40;80.76;100495.88;4936134;28;20513;-76
2021/05/23 05:51:30;;;;;;;6.65;1.55;;;10.50;99.90;;;9.29;81.27;100493.75;4910164;28;20487;-76
2021/05/23 05:53:59;;;;;;;7.28;1.08;;;10.50;99.90;;;9.26;80.64;100496.50;4927872;28;20066;-76
2021/05/23 05:56:25;;;;;;;5.57;1.23;;;10.50;99.90;;;9.30;82.11;100502.47;4939059;28;20527;-76
2021/05/23 05:58:51;;;;;;;5.88;1.50;;;10.90;99.90;;;9.33;80.89;100500.56;4961787;28;20078;-76
2021/05/23 06:01:17;;;;;;;6.22;1.08;;;10.70;99.90;;;9.55;79.71;100502.22;4941839;28;20125;-76
2021/05/23 06:03:48;;;;;;;3.45;1.67;;;10.80;99.90;;;9.80;80.37;100508.03;4940616;28;20415;-75
2021/05/23 06:06:14;;;;;;;4.50;1.08;;;11.00;99.90;;;9.77;79.20;100505.56;4955903;28;20342;-76
2021/05/23 06:08:39;;;;;;;8.48;1.38;;;10.80;99.90;;;9.64;80.73;100507.91;4946259;28;20437;-76
2021/05/23 06:11:22;;;;;;;6.10;1.58;;;10.70;99.90;;;9.68;80.07;100513.03;4940937;28;20072;-76
2021/05/23 06:13:53;;;;;;;4.28;1.30;;;10.80;99.90;;;9.63;80.02;100507.97;4917768;28;20092;-76
2021/05/23 06:16:19;;;;;;;7.80;1.35;;;10.90;99.90;;;9.75;79.60;100510.03;4944716;28;20096;-76
2021/05/23 06:18:45;;;;;;;9.43;1.27;;;11.10;99.90;;;10.22;79.66;100514.81;4982036;28;20083;-76
2021/05/23 06:21:12;;;;;;;18.60;2.13;;;11.60;99.90;;;10.67;77.49;100515.28;4938054;28;20086;-76
2021/05/23 06:23:38;;;;;;;4.57;1.10;;;11.60;99.90;;;10.50;76.22;100528.44;4945750;28;20536;-76
2021/05/23 06:26:14;;;;;;;10.52;1.50;;;11.50;99.90;;;10.42;76.47;100532.28;4924609;28;20072;-76
2021/05/23 06:28:43;;;;;;;4.18;1.40;;;11.40;99.90;;;10.23;76.21;100537.56;4901202;28;20392;-76
2021/05/23 06:31:09;;;;;;;5.57;1.17;;;11.30;99.90;;;10.22;76.70;100535.03;4944540;28;20708;-76
2021/05/23 06:33:38;;;;;;;7.10;1.45;;;11.50;99.90;;;10.56;76.36;100530.75;4927295;28;20070;-76
2021/05/23 06:36:05;;;;;;;6.50;1.55;;;11.80;99.90;;;10.86;74.16;100536.25;4921404;28;20074;-76
2021/05/23 06:38:30;;;;;;;6.15;1.08;;;12.00;99.90;;;11.16;72.02;100538.25;4915556;28;20081;-76
2021/05/23 06:40:56;;;;;;;9.30;1.02;;;12.50;99.90;;;11.75;70.60;100543.91;4922150;28;20074;-76
2021/05/23 06:43:22;;;;;;;3.72;1.08;;;13.20;99.90;;;12.63;69.12;100539.88;4942988;28;20084;-76
2021/05/23 06:45:50;;;;;;;3.55;1.02;;;13.90;99.90;;;13.46;64.24;100537.63;4928968;28;20319;-76
2021/05/23 06:48:21;;;;;;;5.05;1.92;;;14.20;99.90;;;13.36;65.20;100549.69;4921989;28;20082;-76
2021/05/23 06:50:48;;;;;;;6.45;0.98;;;13.80;99.90;;;12.78;66.68;100554.84;4901138;28;20096;-76
2021/05/23 06:53:14;;;;;;;4.05;1.08;;;13.10;99.90;;;12.02;66.96;100562.69;4931994;28;20453;-76
2021/05/23 06:55:47;;;;;;;3.83;0.90;;;12.80;99.90;;;11.81;68.92;100567.31;4925438;28;20076;-76
2021/05/23 06:58:13;;;;;;;3.83;1.00;;;12.50;99.90;;;11.45;69.35;100565.75;4942667;28;20473;-76
2021/05/23 07:00:39;;;;;;;3.78;1.10;;;12.30;99.90;;;11.37;71.19;100573.19;4890558;28;20076;-76
2021/05/23 07:03:07;;;;;;;7.00;1.63;;;12.20;99.90;;;11.15;71.73;100578.72;4929427;28;20085;-76
2021/05/23 07:05:33;;;;;;;10.45;1.40;;;12.00;99.90;;;10.95;70.30;100582.34;4910630;28;20063;-76
2021/05/23 07:07:59;;;;;;;4.90;1.10;;;12.00;99.90;;;10.98;72.62;100587.50;4931290;28;20443;-76
2021/05/23 07:10:27;;;;;;;3.03;0.98;;;12.20;99.90;;;11.32;70.63;100591.88;4924562;28;20066;-76
2021/05/23 07:12:53;;;;;;;6.70;1.00;;;12.30;99.90;;;11.38;70.33;100590.69;4936442;28;20519;-76
2021/05/23 07:15:21;;;;;;;3.38;1.00;;;12.40;99.90;;;11.57;70.13;100586.16;4951935;28;20147;-76
2021/05/23 07:17:49;;;;;;;3.40;1.10;;;12.60;99.90;;;11.74;68.87;100597.63;4937619;28;20154;-76
2021/05/23 07:20:17;;;;;;;8.93;1.50;;;12.60;99.90;;;11.75;70.94;100599.31;4944164;28;20477;-76
2021/05/23 07:22:46;;;;;;;8.18;1.50;;;12.50;99.90;;;11.42;69.21;100598.38;4938798;28;20099;-76
2021/05/23 07:25:13;;;;;;;7.97;1.02;;;12.20;99.90;;;11.24;69.79;100605.44;4917908;28;20280;-76
2021/05/23 07:27:44;;;;;;;4.07;1.10;;;12.50;99.90;;;11.99;66.17;100600.66;4945650;28;20071;-76
2021/05/23 07:30:11;;;;;;;8.73;1.38;;;13.40;99.90;;;12.90;64.08;100603.50;4927611;28;20146;-76
2021/05/23 07:32:37;;;;;;;7.75;1.33;;;13.20;99.90;;;12.27;65.52;100604.44;4909032;28;20074;-76
2021/05/23 07:35:04;;;;;;;5.28;1.38;;;13.10;99.90;;;12.13;64.60;100609.63;4936181;28;20075;-77
2021/05/23 07:37:30;;;;;;;12.57;1.35;;;13.40;99.90;;;13.15;63.81;100610.81;4947887;28;20074;-76
2021/05/23 07:39:55;;;;;;;4.90;1.08;;;13.40;99.90;;;12.54;62.42;100630.22;4930139;28;20072;-76
2021/05/23 07:42:26;;;;;;;6.30;1.38;;;13.00;99.90;;;11.84;64.66;100625.22;4914217;28;20071;-76
2021/05/23 07:44:52;;;;;;;7.90;1.20;;;12.50;99.90;;;11.35;67.53;100633.91;4940007;28;20077;-76
2021/05/23 07:47:18;;;;;;;4.80;1.15;;;12.30;99.90;;;11.28;67.67;100638.63;4920858;28;20080;-76
2021/05/23 07:49:46;;;;;;;12.20;1.45;;;12.20;99.90;;;11.11;69.29;100646.53;4935744;28;20428;-76
2021/05/23 07:52:15;;;;;;;2.53;0.85;;;12.00;99.90;;;10.95;68.91;100650.84;4945060;28;20540;-76
2021/05/23 07:54:43;;;;;;;8.10;1.25;;;12.00;99.90;;;11.01;67.29;100643.50;4930128;28;20062;-76
2021/05/23 07:57:10;;;;;;;9.27;1.33;;;12.20;99.90;;;11.46;65.23;100642.09;4946221;28;20059;-76
2021/05/23 07:59:36;;;;;;;5.40;1.25;;;12.70;99.90;;;11.84;63.67;100635.78;4930843;28;20165;-76
2021/05/23 08:02:02;;;;;;;4.28;1.00;;;12.80;99.90;;;11.89;66.23;100644.31;4925604;28;20423;-76
2021/05/23 08:04:29;;;;;;;4.32;0.95;;;12.70;99.90;;;11.74;66.56;100648.56;4933758;28;20084;-76
2021/05/23 08:06:57;;;;;;;2.17;0.90;;;12.70;99.90;;;11.84;68.30;100647.16;4911102;28;20075;-76
2021/05/23 08:09:23;;;;;;;6.88;1.23;;;12.80;99.90;;;12.11;64.22;100649.28;4914408;28;20147;-77
2021/05/23 08:11:49;;;;;;;4.55;0.95;;;13.10;99.90;;;12.19;63.87;100654.16;4895092;28;20075;-76
2021/05/23 08:14:15;;;;;;;1.38;0.60;;;13.00;99.90;;;12.00;63.10;100652.50;4926552;28;20060;-76
2021/05/23 08:16:46;;;;;;;6.45;1.20;;;12.80;99.90;;;11.70;63.94;100655.81;4944733;28;20587;-76
2021/05/23 08:19:15;;;;;;;4.10;1.58;;;12.70;99.90;;;11.88;66.13;100661.94;4912363;28;20071;-76
2021/05/23 08:21:43;;;;;;;4.68;0.95;;;13.00;99.90;;;12.26;66.84;100658.16;4956847;28;20067;-77
2021/05/23 08:24:10;;;;;;;6.97;1.35;;;13.20;99.90;;;12.21;65.60;100652.28;4924320;28;20083;-77
2021/05/23 08:26:36;;;;;;;7.95;1.35;;;13.20;99.90;;;12.33;66.04;100662.16;4923173;28;20153;-76
2021/05/23 08:29:05;;;;;;;3.42;1.10;;;13.50;99.90;;;12.92;63.73;100665.88;4968419;28;20094;-76
2021/05/23 08:31:32;;;;;;;7.22;1.33;;;14.50;99.90;;;14.15;58.27;100655.91;4949735;28;20114;-76
2021/05/23 08:33:59;;;;;;;4.15;1.10;;;15.50;99.90;;;15.06;57.56;100657.22;4915895;28;20095;-76
2021/05/23 08:36:25;;;;;;;3.72;0.98;;;15.70;99.90;;;14.97;59.37;100664.81;4931136;28;20154;-76
2021/05/23 08:38:50;;;;;;;8.07;1.88;;;15.80;99.90;;;14.97;55.66;100663.97;4955777;28;20158;-76
2021/05/23 08:41:26;;;;;;;2.97;0.95;;;15.30;99.90;;;14.13;57.72;100667.56;4926441;28;20408;-76
2021/05/23 08:43:53;;;;;;;8.45;1.10;;;14.90;99.90;;;14.26;59.29;100668.47;4922461;28;20105;-76
2021/05/23 08:46:22;;;;;;;5.03;1.08;;;15.00;99.90;;;14.36;58.63;100671.38;4960271;28;20105;-76
2021/05/23 08:48:56;;;;;;;4.03;1.13;;;14.80;99.90;;;13.97;60.13;100678.22;4897224;28;20060;-76
2021/05/23 08:51:22;;;;;;;7.47;1.50;;;15.10;99.90;;;14.59;59.91;100677.06;4918945;28;20091;-76
2021/05/23 08:53:55;;;;;;;4.93;1.02;;;15.90;99.90;;;15.23;54.64;100680.81;4939899;28;20080;-76
2021/05/23 08:56:21;;;;;;;5.68;1.20;;;16.60;99.90;;;16.10;55.15;100679.28;4931538;28;20110;-76
2021/05/23 08:58:47;;;;;;;7.15;1.27;;;17.00;99.90;;;16.43;53.15;100683.16;4915256;28;20065;-76
2021/05/23 09:01:28;;;;;;;4.95;1.23;;;16.70;99.90;;;15.51;51.16;100689.56;4959589;28;20505;-76
2021/05/23 09:04:07;;;;;;;8.65;1.10;;;15.90;99.90;;;15.33;54.07;100689.84;4919241;28;20101;-76
2021/05/23 09:06:36;;;;;;;5.45;1.40;;;15.70;99.90;;;14.74;53.05;100694.63;4923732;28;20117;-77
2021/05/23 09:09:11;;;;;;;5.45;1.30;;;15.10;99.90;;;14.00;55.45;100703.69;4899358;28;20293;-77
2021/05/23 09:11:39;;;;;;;3.97;1.25;;;14.60;99.90;;;13.88;59.75;100700.81;4921783;28;20072;-76
2021/05/23 09:14:09;;;;;;;3.40;0.90;;;14.50;99.90;;;13.55;59.96;100703.72;4903448;28;20536;-76
2021/05/23 09:16:40;;;;;;;7.53;1.30;;;14.30;99.90;;;13.23;57.77;100706.41;4929324;28;20467;-76
2021/05/23 09:19:20;;;;;;;4.40;1.20;;;14.00;99.90;;;13.10;58.21;100705.41;4857932;28;20079;-77
2021/05/23 09:21:47;;;;;;;7.43;1.17;;;14.20;99.90;;;13.30;56.09;100699.00;4861658;28;20072;-77
2021/05/23 09:24:16;;;;;;;6.68;1.48;;;14.40;99.90;;;13.89;57.17;100696.41;4899080;28;20088;-77
2021/05/23 09:26:49;;;;;;;6.55;1.02;;;15.10;99.90;;;14.71;53.55;100698.34;4860770;28;20125;-76
2021/05/23 09:29:22;;;;;;;5.05;1.02;;;15.40;99.90;;;14.92;54.52;100695.22;4906356;28;20086;-76
2021/05/23 09:31:58;;;;;;;6.55;1.42;;;15.40;99.90;;;14.62;57.32;100709.53;4915078;28;20066;-77
2021/05/23 09:34:27;;;;;;;3.85;1.45;;;15.10;99.90;;;14.40;57.61;100709.97;4879048;28;20063;-76
2021/05/23 09:36:54;;;;;;;7.13;1.00;;;14.80;99.90;;;13.87;57.16;100722.09;4932810;28;20060;-77
2021/05/23 09:39:21;;;;;;;4.60;1.20;;;14.80;99.90;;;14.08;58.38;100711.97;4884100;28;20073;-76
2021/05/23 09:41:48;;;;;;;2.97;1.08;;;15.10;99.90;;;14.44;55.70;100727.38;4904861;28;20071;-77
2021/05/23 09:44:25;;;;;;;3.25;1.17;;;15.10;99.90;;;14.47;53.98;100713.09;4892131;28;20114;-77
2021/05/23 09:47:00;;;;;;;5.40;1.10;;;15.50;99.90;;;15.05;55.11;100719.97;4919695;28;20084;-76
2021/05/23 09:49:28;;;;;;;5.78;1.40;;;16.10;99.90;;;15.72;52.16;100724.41;4931679;28;20070;-77
2021/05/23 09:51:58;;;;;;;4.80;1.40;;;16.10;99.90;;;15.26;54.18;100723.03;4935233;28;20097;-77
2021/05/23 09:54:41;;;;;;;5.90;0.90;;;15.90;99.90;;;15.46;54.39;100731.47;4922694;28;20099;-77
2021/05/23 09:57:28;;;;;;;10.88;1.15;;;15.90;99.90;;;15.41;55.07;100722.97;4911461;28;21843;-77
2021/05/23 10:00:46;;;;;;;3.80;0.95;;;15.90;99.90;;;14.95;56.59;100738.31;4869345;28;20153;-76
2021/05/23 10:03:44;;;;;;;2.35;0.95;;;16.20;99.90;;;15.28;52.19;100736.19;4915399;28;21495;-76
2021/05/23 10:06:27;;;;;;;6.82;1.83;;;15.50;99.90;;;14.59;52.84;100743.31;4891931;28;20866;-76
2021/05/23 10:08:59;;;;;;;6.10;1.55;;;15.40;99.90;;;14.96;53.85;100747.94;4877671;28;20388;-76
2021/05/23 10:11:33;;;;;;;2.33;0.77;;;15.90;99.90;;;15.36;55.30;100739.19;4875587;28;20072;-76
2021/05/23 10:14:08;;;;;;;5.32;1.15;;;15.90;99.90;;;15.15;52.98;100742.31;4894271;28;20066;-77
2021/05/23 10:16:35;;;;;;;4.10;1.02;;;16.10;99.90;;;15.83;51.12;100743.16;4877832;28;20159;-77
2021/05/23 10:19:03;;;;;;;3.75;1.10;;;16.40;99.90;;;15.93;51.30;100735.38;4898600;28;20069;-76
2021/05/23 10:21:36;;;;;;;4.10;0.82;;;16.50;99.90;;;15.85;49.81;100740.38;4923056;28;20460;-76
2021/05/23 10:24:13;;;;;;;2.78;0.95;;;16.30;99.90;;;15.74;49.33;100744.63;4882913;28;20171;-77
2021/05/23 10:26:41;;;;;;;3.92;0.98;;;16.40;99.90;;;15.89;47.46;100739.19;4899022;28;20141;-77
2021/05/23 10:29:08;;;;;;;7.70;1.35;;;18.00;99.90;;;16.21;51.46;100747.59;4898564;28;20514;-77